Time;durP1;ratioP1;P1;durP2;ratioP2;P2;SDS_P1;SDS_P2;PMS_P1;PMS_P2;Temp;Humidity;BMP_temperature;BMP_pressure;BME280_temperature;BME280_humidity;BME280_pressure;Samples;Min_cycle;Max_cycle;Signal;HPM_P1;HPM_P2
2023/01/08 00:00:47;;;;;;;6.40;4.15;;;9.90;91.30;;;;;;5052238;28;20136;-75
2023/01/08 00:03:14;;;;;;;4.70;3.80;;;10.00;91.30;;;;;;5052178;28;20466;-73
2023/01/08 00:05:40;;;;;;;5.10;4.00;;;10.00;91.10;;;;;;5035210;28;20044;-75
2023/01/08 00:08:07;;;;;;;8.63;4.03;;;10.00;91.10;;;;;;5051860;28;20044;-74
2023/01/08 00:10:37;;;;;;;7.47;3.72;;;10.00;91.10;;;;;;5051687;28;20116;-71
2023/01/08 00:13:04;;;;;;;8.45;4.25;;;10.00;91.10;;;;;;5052072;28;20028;-72
2023/01/08 00:15:30;;;;;;;6.93;3.83;;;10.00;90.80;;;;;;5051661;28;20037;-75
2023/01/08 00:17:56;;;;;;;7.25;4.15;;;10.00;90.80;;;;;;5035139;28;20167;-75
2023/01/08 00:20:22;;;;;;;4.30;3.90;;;9.90;90.70;;;;;;5051722;28;20055;-72
2023/01/08 00:22:49;;;;;;;7.80;4.43;;;9.90;90.70;;;;;;5051642;28;20045;-73
2023/01/08 00:25:15;;;;;;;5.68;3.70;;;9.90;90.80;;;;;;5051494;28;20041;-72
2023/01/08 00:27:41;;;;;;;5.72;3.97;;;9.90;90.90;;;;;;5034958;28;20049;-73
2023/01/08 00:30:07;;;;;;;6.80;4.15;;;9.90;90.60;;;;;;5051722;28;20043;-75
2023/01/08 00:32:33;;;;;;;5.72;3.72;;;9.90;90.70;;;;;;5051692;28;20485;-72
2023/01/08 00:35:00;;;;;;;5.15;3.20;;;9.90;90.70;;;;;;5051901;28;20044;-73
2023/01/08 00:37:27;;;;;;;5.68;3.70;;;9.80;90.50;;;;;;5051710;28;20502;-73
2023/01/08 00:39:53;;;;;;;6.25;3.30;;;9.80;90.40;;;;;;5034811;28;20123;-76
2023/01/08 00:42:18;;;;;;;5.53;3.20;;;9.80;90.20;;;;;;5051747;28;20131;-74
2023/01/08 00:44:44;;;;;;;3.80;2.47;;;9.80;89.90;;;;;;5051430;28;20489;-75
2023/01/08 00:47:10;;;;;;;4.20;2.60;;;9.70;90.00;;;;;;5037967;28;20043;-73
2023/01/08 00:49:36;;;;;;;5.28;2.40;;;9.60;89.10;;;;;;5055428;28;20128;-75
2023/01/08 00:52:01;;;;;;;3.25;2.22;;;9.60;89.30;;;;;;5055361;28;20132;-74
2023/01/08 00:54:27;;;;;;;5.47;2.05;;;9.60;88.80;;;;;;5055400;28;20048;-73
2023/01/08 00:56:56;;;;;;;4.25;2.20;;;9.50;88.80;;;;;;5055280;28;20048;-73
2023/01/08 00:59:21;;;;;;;6.80;1.85;;;9.50;89.00;;;;;;5039069;28;20049;-72
2023/01/08 01:01:47;;;;;;;5.75;1.90;;;9.40;88.80;;;;;;5055356;28;20526;-73
2023/01/08 01:04:13;;;;;;;6.53;1.92;;;9.40;88.80;;;;;;5055274;28;20041;-74
2023/01/08 01:06:40;;;;;;;8.70;2.85;;;9.40;89.00;;;;;;5055138;28;20488;-74
2023/01/08 01:09:06;;;;;;;6.75;2.50;;;9.30;88.80;;;;;;5055405;28;20048;-77
2023/01/08 01:11:33;;;;;;;5.80;2.40;;;9.30;88.80;;;;;;5055070;28;20044;-71
2023/01/08 01:13:59;;;;;;;6.43;2.30;;;9.30;88.60;;;;;;5055104;28;20037;-74
2023/01/08 01:16:25;;;;;;;4.25;1.58;;;9.20;88.80;;;;;;5054985;28;20155;-72
2023/01/08 01:18:51;;;;;;;5.50;1.80;;;9.20;88.90;;;;;;5054987;28;20077;-73
2023/01/08 01:21:30;;;;;;;5.32;1.90;;;9.20;88.90;;;;;;5038336;28;20044;-72
2023/01/08 01:23:57;;;;;;;9.90;2.30;;;9.10;88.80;;;;;;5038330;28;20041;-77
2023/01/08 01:26:24;;;;;;;4.90;2.17;;;9.10;88.90;;;;;;5054779;28;20500;-76
2023/01/08 01:28:51;;;;;;;4.25;2.50;;;9.10;89.60;;;;;;5055208;28;20519;-72
2023/01/08 01:31:17;;;;;;;6.55;2.88;;;9.00;90.00;;;;;;5054769;28;20167;-73
2023/01/08 01:33:44;;;;;;;5.50;2.85;;;9.00;90.40;;;;;;5054728;28;20556;-72
2023/01/08 01:36:14;;;;;;;7.43;2.90;;;9.00;90.70;;;;;;5054808;28;20366;-73
2023/01/08 01:38:45;;;;;;;7.20;3.50;;;8.90;91.00;;;;;;5054615;28;20041;-73
2023/01/08 01:41:31;;;;;;;8.60;2.70;;;8.90;91.40;;;;;;5054572;28;20049;-73
2023/01/08 01:44:00;;;;;;;9.15;4.03;;;8.90;91.40;;;;;;5054510;28;20481;-75
2023/01/08 01:46:35;;;;;;;7.43;2.88;;;8.90;91.10;;;;;;5054386;28;20041;-74
2023/01/08 01:49:14;;;;;;;9.02;2.83;;;8.80;91.10;;;;;;5054460;28;20485;-73
2023/01/08 01:51:49;;;;;;;10.43;2.85;;;8.80;91.10;;;;;;5054095;28;20516;-73
2023/01/08 01:54:17;;;;;;;11.07;2.70;;;8.80;91.20;;;;;;5054414;28;20061;-74
2023/01/08 01:56:44;;;;;;;10.70;2.50;;;8.80;91.10;;;;;;5054031;28;20492;-73
2023/01/08 01:59:10;;;;;;;6.68;3.05;;;8.70;91.30;;;;;;5054188;28;20041;-75
2023/01/08 02:01:37;;;;;;;7.00;2.83;;;8.70;91.70;;;;;;5054177;28;20259;-75
2023/01/08 02:04:03;;;;;;;8.20;2.67;;;8.60;91.60;;;;;;5054149;28;20053;-75
2023/01/08 02:06:57;;;;;;;11.45;2.83;;;8.60;91.80;;;;;;5053958;28;20072;-75
2023/01/08 02:09:40;;;;;;;8.70;2.50;;;8.60;92.00;;;;;;5070718;28;20053;-73
2023/01/08 02:12:17;;;;;;;7.68;3.22;;;8.60;91.70;;;;;;5054011;28;20045;-75
2023/01/08 02:15:10;;;;;;;7.43;2.55;;;8.50;91.90;;;;;;5037413;28;20047;-76
2023/01/08 02:17:42;;;;;;;9.13;3.08;;;8.50;92.10;;;;;;5070554;28;20040;-72
2023/01/08 02:20:23;;;;;;;11.25;3.10;;;8.40;92.10;;;;;;5054095;28;20081;-73
2023/01/08 02:23:10;;;;;;;9.48;2.53;;;8.40;92.10;;;;;;5053792;28;20570;-74
2023/01/08 02:26:07;;;;;;;8.60;2.75;;;8.30;92.20;;;;;;5053627;28;20072;-73
2023/01/08 02:28:44;;;;;;;9.45;3.17;;;8.30;92.10;;;;;;5053686;28;20041;-73
2023/01/08 02:31:11;;;;;;;8.30;2.42;;;8.30;91.90;;;;;;5053638;28;20040;-73
2023/01/08 02:33:37;;;;;;;13.35;3.28;;;8.30;91.80;;;;;;5037473;28;20370;-76
2023/01/08 02:36:22;;;;;;;11.38;3.65;;;8.30;91.80;;;;;;5053703;28;20090;-74
2023/01/08 02:39:15;;;;;;;9.95;2.40;;;8.20;91.90;;;;;;5053551;28;20472;-75
2023/01/08 02:41:52;;;;;;;11.73;2.45;;;8.20;91.90;;;;;;5053690;28;20081;-72
2023/01/08 02:44:26;;;;;;;14.20;2.47;;;8.20;91.80;;;;;;5053444;28;20485;-75
2023/01/08 02:46:56;;;;;;;13.55;3.22;;;8.20;91.80;;;;;;5053335;28;20166;-73
2023/01/08 02:49:25;;;;;;;11.95;2.47;;;8.20;91.80;;;;;;5053641;28;20146;-75
2023/01/08 02:51:54;;;;;;;9.73;2.65;;;8.20;91.70;;;;;;5053023;28;20040;-72
2023/01/08 02:54:27;;;;;;;8.55;2.83;;;8.20;91.60;;;;;;5053477;28;20044;-73
2023/01/08 02:57:00;;;;;;;13.68;3.58;;;8.20;91.70;;;;;;5053160;28;20174;-73
2023/01/08 02:59:30;;;;;;;17.98;3.50;;;8.10;91.70;;;;;;5053080;28;20045;-73
2023/01/08 03:01:56;;;;;;;11.75;3.05;;;8.10;91.70;;;;;;5053079;28;20049;-74
2023/01/08 03:04:24;;;;;;;9.82;2.63;;;8.10;91.80;;;;;;5069654;28;20572;-73
2023/01/08 03:06:50;;;;;;;12.00;3.60;;;8.10;91.80;;;;;;5052923;28;20081;-71
2023/01/08 03:09:16;;;;;;;10.85;2.35;;;8.20;91.70;;;;;;5035775;28;20037;-74
2023/01/08 03:12:03;;;;;;;10.30;2.65;;;8.10;91.80;;;;;;5036179;28;20055;-75
2023/01/08 03:14:49;;;;;;;8.13;2.97;;;8.10;92.10;;;;;;5052764;28;20040;-72
2023/01/08 03:17:26;;;;;;;8.05;3.20;;;8.10;92.30;;;;;;5052709;28;20045;-73
2023/01/08 03:20:01;;;;;;;18.02;3.17;;;8.10;92.30;;;;;;5052706;28;20048;-74
2023/01/08 03:22:29;;;;;;;12.13;2.50;;;8.10;92.20;;;;;;5052608;28;20087;-72
2023/01/08 03:24:57;;;;;;;9.80;2.47;;;8.00;92.20;;;;;;5052839;28;20045;-74
2023/01/08 03:27:28;;;;;;;12.05;2.45;;;8.00;92.20;;;;;;5052450;28;20044;-74
2023/01/08 03:29:57;;;;;;;11.40;2.85;;;8.00;92.20;;;;;;5052458;28;20076;-73
2023/01/08 03:32:24;;;;;;;11.13;2.88;;;8.00;92.10;;;;;;5052754;28;20432;-75
2023/01/08 03:34:53;;;;;;;9.13;3.03;;;8.10;91.90;;;;;;5052349;28;20036;-73
2023/01/08 03:37:23;;;;;;;7.57;3.50;;;8.10;91.90;;;;;;5052532;28;20127;-74
2023/01/08 03:39:57;;;;;;;13.07;3.20;;;8.10;91.80;;;;;;5052312;28;20120;-77
2023/01/08 03:42:23;;;;;;;13.68;3.10;;;8.10;91.80;;;;;;5052447;28;20549;-74
2023/01/08 03:44:50;;;;;;;12.38;2.28;;;8.00;91.90;;;;;;5052497;28;20037;-74
2023/01/08 03:47:16;;;;;;;10.25;2.30;;;8.10;92.10;;;;;;5052083;28;20041;-72
2023/01/08 03:49:43;;;;;;;8.25;2.00;;;8.10;92.20;;;;;;5052050;28;20489;-75
2023/01/08 03:52:19;;;;;;;9.80;2.70;;;8.00;92.30;;;;;;5052370;28;20157;-73
2023/01/08 03:54:44;;;;;;;10.27;2.33;;;8.10;92.30;;;;;;5052083;28;20070;-75
2023/01/08 03:57:10;;;;;;;6.97;1.98;;;8.00;92.40;;;;;;5051929;28;20033;-73
2023/01/08 03:59:36;;;;;;;13.77;2.90;;;8.00;92.50;;;;;;5052017;28;20047;-73
2023/01/08 04:02:01;;;;;;;10.85;4.88;;;8.00;92.70;;;;;;5051871;28;20051;-76
2023/01/08 04:04:27;;;;;;;10.60;3.20;;;8.00;92.40;;;;;;5051883;28;20045;-73
2023/01/08 04:06:53;;;;;;;8.07;2.70;;;8.00;92.70;;;;;;5035498;28;20053;-74
2023/01/08 04:09:18;;;;;;;6.75;2.75;;;8.00;93.20;;;;;;5051848;28;20047;-73
2023/01/08 04:11:44;;;;;;;11.40;2.50;;;8.00;92.80;;;;;;5035162;28;20045;-72
2023/01/08 04:14:11;;;;;;;6.50;2.55;;;8.00;93.10;;;;;;5052026;28;20045;-74
2023/01/08 04:16:36;;;;;;;10.25;3.38;;;8.00;93.20;;;;;;5051541;28;20052;-73
2023/01/08 04:19:02;;;;;;;10.20;3.35;;;8.00;93.40;;;;;;5018748;28;20048;-74
2023/01/08 04:21:28;;;;;;;8.23;2.63;;;7.90;93.60;;;;;;5051019;28;20044;-75
2023/01/08 04:23:54;;;;;;;9.95;2.80;;;7.90;93.60;;;;;;5051669;28;20063;-72
2023/01/08 04:26:19;;;;;;;8.10;2.80;;;7.90;93.60;;;;;;5035240;28;20037;-72
2023/01/08 04:28:45;;;;;;;6.95;2.40;;;7.90;93.70;;;;;;5035070;28;20512;-74
2023/01/08 04:31:11;;;;;;;8.88;2.97;;;7.90;93.80;;;;;;5034927;28;20090;-75
2023/01/08 04:33:36;;;;;;;8.80;3.45;;;7.90;93.90;;;;;;5051511;28;20098;-71
2023/01/08 04:36:03;;;;;;;6.20;2.90;;;7.90;94.00;;;;;;5051453;28;20045;-74
2023/01/08 04:38:29;;;;;;;8.60;2.90;;;7.90;94.10;;;;;;5034918;28;20083;-76
2023/01/08 04:41:01;;;;;;;5.18;2.90;;;7.90;93.80;;;;;;5051491;28;20052;-74
2023/01/08 04:43:28;;;;;;;8.45;3.25;;;7.90;94.00;;;;;;5034820;28;20044;-77
2023/01/08 04:46:02;;;;;;;9.55;2.72;;;7.90;94.40;;;;;;5051116;28;20087;-71
2023/01/08 04:48:28;;;;;;;7.33;3.20;;;7.80;94.10;;;;;;5051545;28;20127;-74
2023/01/08 04:50:56;;;;;;;10.07;3.33;;;7.80;94.10;;;;;;5051322;28;20041;-73
2023/01/08 04:53:22;;;;;;;5.40;3.00;;;7.90;94.20;;;;;;5051104;28;20090;-72
2023/01/08 04:55:47;;;;;;;5.28;2.58;;;7.80;94.20;;;;;;5051308;28;20049;-77
2023/01/08 04:58:13;;;;;;;8.10;2.90;;;7.80;93.80;;;;;;5051266;28;20045;-73
2023/01/08 05:00:39;;;;;;;6.57;2.53;;;7.90;94.20;;;;;;5034955;28;20090;-75
2023/01/08 05:03:05;;;;;;;8.50;2.97;;;7.90;94.40;;;;;;5051316;28;20048;-74
2023/01/08 05:05:32;;;;;;;7.03;3.03;;;7.80;94.50;;;;;;5051457;28;20045;-72
2023/01/08 05:07:58;;;;;;;9.38;2.88;;;7.80;94.50;;;;;;5051223;28;20052;-73
2023/01/08 05:10:24;;;;;;;8.20;2.80;;;7.80;94.30;;;;;;5051137;28;20401;-75
2023/01/08 05:12:49;;;;;;;7.28;3.13;;;7.80;94.80;;;;;;5051100;28;20103;-75
2023/01/08 05:15:15;;;;;;;8.48;3.65;;;7.80;94.40;;;;;;5051378;28;20124;-75
2023/01/08 05:17:41;;;;;;;7.35;2.95;;;7.80;94.60;;;;;;5051130;28;20488;-77
2023/01/08 05:20:07;;;;;;;6.13;2.65;;;7.80;94.30;;;;;;5051154;28;20053;-74
2023/01/08 05:22:33;;;;;;;6.43;2.60;;;7.80;94.40;;;;;;5051340;28;20080;-74
2023/01/08 05:24:59;;;;;;;5.28;2.42;;;7.80;94.50;;;;;;5051516;28;20548;-76
2023/01/08 05:27:24;;;;;;;8.27;3.10;;;7.80;94.40;;;;;;5034400;28;20052;-72
2023/01/08 05:29:50;;;;;;;10.13;2.95;;;7.80;94.60;;;;;;5034711;28;20127;-72
2023/01/08 05:32:17;;;;;;;9.43;3.22;;;7.80;94.60;;;;;;5052759;28;20106;-74
2023/01/08 05:34:43;;;;;;;7.07;2.63;;;7.70;94.70;;;;;;5054737;28;20485;-73
2023/01/08 05:37:09;;;;;;;6.72;2.53;;;7.70;94.50;;;;;;5054623;28;20041;-74
2023/01/08 05:39:36;;;;;;;8.48;2.30;;;7.70;94.50;;;;;;5054887;28;20048;-73
2023/01/08 05:42:02;;;;;;;10.27;2.67;;;7.70;94.60;;;;;;5054796;28;20048;-73
2023/01/08 05:44:27;;;;;;;5.75;2.13;;;7.80;94.60;;;;;;5054532;28;20083;-74
2023/01/08 05:46:53;;;;;;;9.90;3.28;;;7.80;94.40;;;;;;5054401;28;20076;-74
2023/01/08 05:49:22;;;;;;;4.15;1.50;;;7.80;94.20;;;;;;5054661;28;20051;-73
2023/01/08 05:51:49;;;;;;;7.68;2.88;;;7.80;94.00;;;;;;5054192;28;20443;-73
2023/01/08 05:54:15;;;;;;;9.43;2.50;;;7.80;93.70;;;;;;5054396;28;20087;-74
2023/01/08 05:56:42;;;;;;;5.80;1.42;;;7.70;93.60;;;;;;5054158;28;20120;-74
2023/01/08 05:59:10;;;;;;;6.75;1.90;;;7.70;93.70;;;;;;5054467;28;20041;-75
2023/01/08 06:01:36;;;;;;;7.45;1.50;;;7.70;93.40;;;;;;5070872;28;20052;-74
2023/01/08 06:04:02;;;;;;;5.90;2.58;;;7.60;93.20;;;;;;5037854;28;20397;-72
2023/01/08 06:06:28;;;;;;;10.55;1.95;;;7.60;93.10;;;;;;5037718;28;20408;-73
2023/01/08 06:08:54;;;;;;;7.00;1.65;;;7.60;92.90;;;;;;5054066;28;20045;-76
2023/01/08 06:11:20;;;;;;;7.22;1.90;;;7.50;92.90;;;;;;5053993;28;20044;-73
2023/01/08 06:13:45;;;;;;;5.45;2.33;;;7.50;92.80;;;;;;5055227;28;20474;-74
2023/01/08 06:16:11;;;;;;;4.35;1.60;;;7.50;92.80;;;;;;5053860;28;20086;-76
2023/01/08 06:18:37;;;;;;;8.23;1.73;;;7.60;92.90;;;;;;5037333;28;20464;-74
2023/01/08 06:21:04;;;;;;;4.93;1.55;;;7.50;92.90;;;;;;5070886;28;20052;-74
2023/01/08 06:23:30;;;;;;;5.65;1.63;;;7.50;93.00;;;;;;5053786;28;20523;-72
2023/01/08 06:25:58;;;;;;;9.05;1.88;;;7.50;93.10;;;;;;5053634;28;20486;-74
2023/01/08 06:28:24;;;;;;;9.32;1.80;;;7.40;93.10;;;;;;5053684;28;20099;-78
2023/01/08 06:30:51;;;;;;;10.27;1.95;;;7.40;93.20;;;;;;5053555;28;20033;-74
2023/01/08 06:33:17;;;;;;;7.85;1.80;;;7.40;93.20;;;;;;5070267;28;20055;-74
2023/01/08 06:35:43;;;;;;;9.40;2.17;;;7.40;93.20;;;;;;5036870;28;20482;-75
2023/01/08 06:38:08;;;;;;;8.48;2.67;;;7.40;93.20;;;;;;5053831;28;20099;-75
2023/01/08 06:40:34;;;;;;;6.10;1.70;;;7.40;93.10;;;;;;5070351;28;20132;-73
2023/01/08 06:43:01;;;;;;;8.13;2.00;;;7.40;93.00;;;;;;5052818;28;20504;-74
2023/01/08 06:45:27;;;;;;;9.10;1.88;;;7.30;93.20;;;;;;5036689;28;20056;-73
2023/01/08 06:47:53;;;;;;;11.10;2.42;;;7.30;93.10;;;;;;5053369;28;20515;-74
2023/01/08 06:50:19;;;;;;;11.52;1.90;;;7.30;93.00;;;;;;5053427;28;20072;-74
2023/01/08 06:52:52;;;;;;;6.22;1.98;;;7.30;93.00;;;;;;5069777;28;20045;-74
2023/01/08 06:55:18;;;;;;;9.13;2.15;;;7.30;93.00;;;;;;5053454;28;20367;-73
2023/01/08 06:57:44;;;;;;;10.48;1.92;;;7.20;92.90;;;;;;5036590;28;20033;-73
2023/01/08 07:00:10;;;;;;;8.85;2.30;;;7.20;93.00;;;;;;5053177;28;20047;-74
2023/01/08 07:02:36;;;;;;;10.82;1.92;;;7.30;92.90;;;;;;5053121;28;20132;-73
2023/01/08 07:05:02;;;;;;;7.22;1.70;;;7.20;92.90;;;;;;5053011;28;20076;-74
2023/01/08 07:07:27;;;;;;;5.57;1.73;;;7.20;92.90;;;;;;5053124;28;20041;-75
2023/01/08 07:09:53;;;;;;;6.03;2.05;;;7.20;93.00;;;;;;5052814;28;20045;-75
2023/01/08 07:12:19;;;;;;;9.57;2.00;;;7.20;92.90;;;;;;5052950;28;20405;-74
2023/01/08 07:14:44;;;;;;;7.88;2.13;;;7.20;92.90;;;;;;5036232;28;20071;-72
2023/01/08 07:17:10;;;;;;;10.27;3.47;;;7.20;92.90;;;;;;5052729;28;20041;-75
2023/01/08 07:19:36;;;;;;;9.45;2.13;;;7.20;92.80;;;;;;5052968;28;20052;-74
2023/01/08 07:22:02;;;;;;;10.73;2.08;;;7.30;92.80;;;;;;5052922;28;20045;-73
2023/01/08 07:24:27;;;;;;;9.15;2.17;;;7.30;92.60;;;;;;5052902;28;20559;-72
2023/01/08 07:26:53;;;;;;;14.10;2.63;;;7.20;92.70;;;;;;5036026;28;20480;-72
2023/01/08 07:29:19;;;;;;;7.38;2.08;;;7.20;92.80;;;;;;5035957;28;20041;-73
2023/01/08 07:31:45;;;;;;;6.85;1.95;;;7.20;92.80;;;;;;5052450;28;20044;-71
2023/01/08 07:34:10;;;;;;;12.85;3.17;;;7.10;92.90;;;;;;5052477;28;20037;-73
2023/01/08 07:36:36;;;;;;;10.30;2.70;;;7.10;93.00;;;;;;5052262;28;20047;-73
2023/01/08 07:39:02;;;;;;;6.75;2.40;;;7.10;92.90;;;;;;5052279;28;20040;-72
2023/01/08 07:41:28;;;;;;;8.00;2.95;;;7.00;92.90;;;;;;5052425;28;20095;-72
2023/01/08 07:43:53;;;;;;;12.20;3.47;;;7.00;92.90;;;;;;5052390;28;20496;-72
2023/01/08 07:46:19;;;;;;;7.20;2.35;;;7.00;93.10;;;;;;5051746;28;20504;-72
2023/01/08 07:48:45;;;;;;;8.07;2.67;;;7.00;93.20;;;;;;5051858;28;20052;-73
2023/01/08 07:51:11;;;;;;;7.50;3.15;;;7.00;93.10;;;;;;5051871;28;20045;-74
2023/01/08 07:53:37;;;;;;;5.65;3.58;;;6.90;93.70;;;;;;5051787;28;20509;-74
2023/01/08 07:56:05;;;;;;;10.73;3.50;;;7.00;93.70;;;;;;5052054;28;20037;-71
2023/01/08 07:58:31;;;;;;;8.85;3.70;;;7.00;93.70;;;;;;5035598;28;20496;-72
2023/01/08 08:00:57;;;;;;;10.20;4.00;;;7.00;93.70;;;;;;5051979;28;20053;-76
2023/01/08 08:03:23;;;;;;;9.13;4.07;;;7.00;93.80;;;;;;5052244;28;20095;-74
2023/01/08 08:05:49;;;;;;;7.68;3.40;;;7.00;94.10;;;;;;5052072;28;20044;-73
2023/01/08 08:08:15;;;;;;;11.27;3.80;;;7.00;94.40;;;;;;5052073;28;20044;-73
2023/01/08 08:10:42;;;;;;;10.48;3.78;;;7.00;94.10;;;;;;5051838;28;20039;-74
2023/01/08 08:13:08;;;;;;;7.80;4.53;;;7.00;94.40;;;;;;5052067;28;20384;-73
2023/01/08 08:15:35;;;;;;;11.50;3.50;;;7.00;94.30;;;;;;5051734;28;20037;-72
2023/01/08 08:18:01;;;;;;;9.75;3.70;;;7.00;94.20;;;;;;5052038;28;20044;-73
2023/01/08 08:20:26;;;;;;;9.20;3.58;;;7.00;94.10;;;;;;5051677;28;20052;-73
2023/01/08 08:23:02;;;;;;;10.60;3.78;;;7.00;94.20;;;;;;5051675;28;20067;-72
2023/01/08 08:25:28;;;;;;;8.48;3.50;;;7.00;94.10;;;;;;5051844;28;20404;-75
2023/01/08 08:27:59;;;;;;;14.75;5.10;;;7.00;94.00;;;;;;5051929;28;20044;-72
2023/01/08 08:30:26;;;;;;;11.77;3.80;;;7.00;94.00;;;;;;5035095;28;20037;-72
2023/01/08 08:32:53;;;;;;;9.00;3.38;;;7.00;93.90;;;;;;5051580;28;20489;-74
2023/01/08 08:35:19;;;;;;;14.38;4.45;;;6.90;94.20;;;;;;5034794;28;20488;-74
2023/01/08 08:37:45;;;;;;;13.57;3.78;;;7.00;94.20;;;;;;5035350;28;20078;-75
2023/01/08 08:40:11;;;;;;;9.65;4.05;;;7.00;94.30;;;;;;5035001;28;20536;-76
2023/01/08 08:42:36;;;;;;;9.32;4.05;;;7.00;94.20;;;;;;5051505;28;20060;-75
2023/01/08 08:45:02;;;;;;;8.63;3.45;;;7.00;94.10;;;;;;5051738;28;20141;-72
2023/01/08 08:47:28;;;;;;;8.90;3.90;;;7.00;94.00;;;;;;5051714;28;20397;-75
2023/01/08 08:49:54;;;;;;;11.80;3.72;;;7.00;94.00;;;;;;5051328;28;20459;-74
2023/01/08 08:52:19;;;;;;;6.78;3.13;;;7.00;93.90;;;;;;5034707;28;20413;-73
2023/01/08 08:54:45;;;;;;;10.95;2.95;;;7.10;93.90;;;;;;5051423;28;20079;-73
2023/01/08 08:57:11;;;;;;;10.23;3.35;;;7.00;93.90;;;;;;5051293;28;20072;-73
2023/01/08 08:59:37;;;;;;;10.68;3.25;;;7.10;93.80;;;;;;5051300;28;20041;-73
2023/01/08 09:02:03;;;;;;;10.55;2.67;;;7.10;93.80;;;;;;5051306;28;20090;-72
2023/01/08 09:04:30;;;;;;;9.80;3.38;;;7.10;93.80;;;;;;5034636;28;20041;-73
2023/01/08 09:06:56;;;;;;;12.93;4.30;;;7.10;93.90;;;;;;5052523;28;20040;-73
2023/01/08 09:09:22;;;;;;;9.48;2.95;;;7.10;93.90;;;;;;5038678;28;20512;-72
2023/01/08 09:11:48;;;;;;;7.38;2.80;;;7.20;93.80;;;;;;5038483;28;20126;-72
2023/01/08 09:14:13;;;;;;;7.90;3.10;;;7.20;93.90;;;;;;5055441;28;20040;-74
2023/01/08 09:16:39;;;;;;;10.45;2.92;;;7.20;93.80;;;;;;5055246;28;20495;-75
2023/01/08 09:19:06;;;;;;;8.32;2.70;;;7.30;93.80;;;;;;5055242;28;20128;-73
2023/01/08 09:21:31;;;;;;;13.13;3.58;;;7.30;93.80;;;;;;5054990;28;20056;-73
2023/01/08 09:23:57;;;;;;;14.45;3.38;;;7.30;93.70;;;;;;5054936;28;20041;-76
2023/01/08 09:26:23;;;;;;;7.00;2.80;;;7.30;93.70;;;;;;5054830;28;20049;-71
2023/01/08 09:28:49;;;;;;;9.50;3.67;;;7.30;93.60;;;;;;5055051;28;20044;-75
2023/01/08 09:31:14;;;;;;;12.93;3.03;;;7.40;93.50;;;;;;5054648;28;20512;-75
2023/01/08 09:33:40;;;;;;;11.32;3.50;;;7.40;93.50;;;;;;5054746;28;20124;-76
2023/01/08 09:36:10;;;;;;;10.43;3.10;;;7.50;93.40;;;;;;5021616;28;20041;-73
2023/01/08 09:38:36;;;;;;;7.05;2.67;;;7.50;93.20;;;;;;5038418;28;20577;-75
2023/01/08 09:41:10;;;;;;;14.68;3.17;;;7.50;93.20;;;;;;5054657;28;20076;-74
2023/01/08 09:43:39;;;;;;;7.57;2.55;;;7.60;92.90;;;;;;5038060;28;20041;-77
2023/01/08 09:46:06;;;;;;;12.07;2.70;;;7.60;92.70;;;;;;5054413;28;20052;-71
2023/01/08 09:48:35;;;;;;;15.20;3.47;;;7.60;92.70;;;;;;5054484;28;20048;-73
2023/01/08 09:51:01;;;;;;;13.27;2.83;;;7.70;92.50;;;;;;5054342;28;20049;-73
2023/01/08 09:53:27;;;;;;;9.50;2.90;;;7.70;92.30;;;;;;5054195;28;20056;-74
2023/01/08 09:56:03;;;;;;;13.55;3.10;;;7.80;92.40;;;;;;5055567;28;20055;-71
2023/01/08 09:58:39;;;;;;;10.65;2.90;;;7.90;92.00;;;;;;5054227;28;20044;-73
2023/01/08 10:01:06;;;;;;;9.60;2.78;;;8.00;92.00;;;;;;5037671;28;20072;-74
2023/01/08 10:03:44;;;;;;;10.15;3.25;;;8.00;91.50;;;;;;5054672;28;20052;-74
2023/01/08 10:06:12;;;;;;;8.65;2.80;;;8.00;91.40;;;;;;5054349;28;20183;-74
2023/01/08 10:08:38;;;;;;;8.48;3.15;;;8.10;91.30;;;;;;5054317;28;20136;-73
2023/01/08 10:11:04;;;;;;;12.13;2.17;;;8.10;90.70;;;;;;5037288;28;20124;-74
2023/01/08 10:13:33;;;;;;;9.68;2.72;;;8.10;90.40;;;;;;5054001;28;20119;-75
2023/01/08 10:15:59;;;;;;;7.97;2.15;;;8.10;90.30;;;;;;5053868;28;20128;-72
2023/01/08 10:18:26;;;;;;;5.32;2.30;;;8.20;90.40;;;;;;5054113;28;20123;-75
2023/01/08 10:20:52;;;;;;;8.43;2.75;;;8.30;90.10;;;;;;5054130;28;20076;-73
2023/01/08 10:23:21;;;;;;;10.77;3.35;;;8.30;89.60;;;;;;5053820;28;20488;-73
2023/01/08 10:25:54;;;;;;;8.75;2.72;;;8.30;89.80;;;;;;5053681;28;20496;-73
2023/01/08 10:28:27;;;;;;;9.43;2.47;;;8.40;89.40;;;;;;5053729;28;20531;-76
2023/01/08 10:30:57;;;;;;;8.10;2.58;;;8.50;89.70;;;;;;5053632;28;20045;-74
2023/01/08 10:33:24;;;;;;;6.22;3.25;;;8.50;89.60;;;;;;5053720;28;20120;-76
2023/01/08 10:36:02;;;;;;;9.27;2.85;;;8.50;89.40;;;;;;5053515;28;20087;-76
2023/01/08 10:38:38;;;;;;;12.10;3.22;;;8.50;89.00;;;;;;5053572;28;20158;-72
2023/01/08 10:41:11;;;;;;;11.65;3.90;;;8.50;88.90;;;;;;5053792;28;20048;-76
2023/01/08 10:43:54;;;;;;;9.05;2.60;;;8.60;89.00;;;;;;5037177;28;20048;-72
2023/01/08 10:46:30;;;;;;;10.90;2.15;;;8.60;88.50;;;;;;5053392;28;20072;-74
2023/01/08 10:48:59;;;;;;;9.85;2.60;;;8.60;88.60;;;;;;5053395;28;20064;-74
2023/01/08 10:51:27;;;;;;;11.52;2.83;;;8.70;88.40;;;;;;5053243;28;20040;-74
2023/01/08 10:53:57;;;;;;;9.50;2.40;;;8.70;87.60;;;;;;5036647;28;20084;-75
2023/01/08 10:56:25;;;;;;;9.48;2.08;;;8.80;87.90;;;;;;5053184;28;20037;-78
2023/01/08 10:58:51;;;;;;;12.73;3.80;;;8.80;87.70;;;;;;5069815;28;20045;-72
2023/01/08 11:01:27;;;;;;;6.57;1.98;;;8.80;87.60;;;;;;5053102;28;20045;-74
2023/01/08 11:03:58;;;;;;;12.77;3.25;;;8.90;88.00;;;;;;5053105;28;20052;-74
2023/01/08 11:06:32;;;;;;;11.68;2.33;;;8.90;87.60;;;;;;5053269;28;20053;-75
2023/01/08 11:09:15;;;;;;;11.73;2.30;;;8.90;87.30;;;;;;5053269;28;20393;-72
2023/01/08 11:11:40;;;;;;;17.70;3.22;;;9.00;87.20;;;;;;5052814;28;20300;-75
2023/01/08 11:14:19;;;;;;;12.50;3.13;;;9.00;87.10;;;;;;5052902;28;20041;-73
2023/01/08 11:16:45;;;;;;;7.22;2.95;;;9.00;86.60;;;;;;5052767;28;20041;-71
2023/01/08 11:19:23;;;;;;;7.22;2.70;;;9.00;87.20;;;;;;5052741;28;20041;-73
2023/01/08 11:21:59;;;;;;;8.57;2.42;;;9.10;86.50;;;;;;5036327;28;20374;-71
2023/01/08 11:24:34;;;;;;;8.40;2.20;;;9.10;86.50;;;;;;5052648;28;20080;-73
2023/01/08 11:27:13;;;;;;;11.73;3.65;;;9.00;85.80;;;;;;5052503;28;20043;-72
2023/01/08 11:30:03;;;;;;;10.07;2.15;;;9.10;86.10;;;;;;5052092;28;20393;-74
2023/01/08 11:32:54;;;;;;;10.95;2.47;;;9.10;86.40;;;;;;5052500;28;20041;-74
2023/01/08 11:35:48;;;;;;;10.05;2.53;;;9.10;86.40;;;;;;5052424;28;20501;-73
2023/01/08 11:38:14;;;;;;;10.82;2.92;;;9.00;86.20;;;;;;5052156;28;20132;-73
2023/01/08 11:40:49;;;;;;;5.95;2.00;;;9.10;86.40;;;;;;5052550;28;20053;-72
2023/01/08 11:43:37;;;;;;;9.05;2.60;;;9.20;86.30;;;;;;5052253;28;20055;-71
2023/01/08 11:46:27;;;;;;;12.60;3.05;;;9.30;85.30;;;;;;5052506;28;20048;-71
2023/01/08 11:49:28;;;;;;;8.55;2.50;;;9.30;84.90;;;;;;5052181;28;20478;-73
2023/01/08 11:52:08;;;;;;;8.27;3.30;;;9.50;85.40;;;;;;5052030;28;20129;-72
2023/01/08 11:54:40;;;;;;;10.93;2.45;;;9.60;85.30;;;;;;5052169;28;20060;-74
2023/01/08 11:57:36;;;;;;;8.82;2.92;;;9.60;84.70;;;;;;5035710;28;20128;-71
2023/01/08 12:00:09;;;;;;;12.68;3.67;;;9.60;83.80;;;;;;5052352;28;20067;-74
2023/01/08 12:02:54;;;;;;;7.43;2.63;;;9.60;84.60;;;;;;5052037;28;20052;-73
2023/01/08 12:05:42;;;;;;;9.63;2.50;;;9.70;84.60;;;;;;5052114;28;20068;-74
2023/01/08 12:08:34;;;;;;;11.80;2.90;;;9.80;84.80;;;;;;5052138;28;20037;-75
2023/01/08 12:11:13;;;;;;;12.32;3.63;;;9.60;83.90;;;;;;5051744;28;20037;-72
2023/01/08 12:14:29;;;;;;;10.70;3.03;;;9.70;84.30;;;;;;5051855;28;20124;-72
2023/01/08 12:17:08;;;;;;;9.80;2.45;;;9.90;84.40;;;;;;5018983;28;20048;-73
2023/01/08 12:19:52;;;;;;;7.28;2.10;;;9.70;84.10;;;;;;5035233;28;20123;-73
2023/01/08 12:22:55;;;;;;;12.68;3.15;;;9.50;83.90;;;;;;5051701;28;20045;-73
2023/01/08 12:25:51;;;;;;;10.93;2.67;;;9.30;84.60;;;;;;5051636;28;20041;-73
2023/01/08 12:28:52;;;;;;;13.18;3.85;;;9.40;84.90;;;;;;5051762;28;20056;-73
2023/01/08 12:31:42;;;;;;;9.70;3.30;;;9.40;85.00;;;;;;5051830;28;20040;-73
2023/01/08 12:34:20;;;;;;;9.63;2.97;;;9.30;84.60;;;;;;5051919;28;20056;-74
2023/01/08 12:36:52;;;;;;;10.63;2.60;;;9.50;84.60;;;;;;5068269;28;20041;-75
2023/01/08 12:39:22;;;;;;;11.27;3.10;;;9.60;84.80;;;;;;5051870;28;20045;-73
2023/01/08 12:41:51;;;;;;;8.65;3.38;;;9.60;84.80;;;;;;5052450;28;20052;-74
2023/01/08 12:44:25;;;;;;;17.60;3.72;;;9.70;84.60;;;;;;5055700;28;20056;-73
2023/01/08 12:46:54;;;;;;;10.45;3.60;;;9.80;85.00;;;;;;5055857;28;20045;-71
2023/01/08 12:49:31;;;;;;;13.73;3.63;;;9.80;84.80;;;;;;5039018;28;20494;-75
2023/01/08 12:52:15;;;;;;;9.77;3.15;;;10.00;84.70;;;;;;5038989;28;20433;-73
2023/01/08 12:55:16;;;;;;;9.73;3.80;;;10.10;83.60;;;;;;5055523;28;20087;-74
2023/01/08 12:58:18;;;;;;;14.65;3.95;;;10.10;83.70;;;;;;5055722;28;20094;-72
2023/01/08 13:01:08;;;;;;;11.18;4.45;;;9.80;83.80;;;;;;5053135;28;20138;-71
2023/01/08 13:03:35;;;;;;;16.27;3.78;;;9.70;84.30;;;;;;5047977;28;20095;-76
2023/01/08 13:06:11;;;;;;;12.65;3.30;;;9.60;84.90;;;;;;5055248;28;20131;-74
2023/01/08 13:08:39;;;;;;;10.27;3.45;;;9.50;85.50;;;;;;5055294;28;20102;-74